Time;durP1;ratioP1;P1;durP2;ratioP2;P2;SDS_P1;SDS_P2;PMS_P1;PMS_P2;Temp;Humidity;BMP_temperature;BMP_pressure;BME280_temperature;BME280_humidity;BME280_pressure;Samples;Min_cycle;Max_cycle;Signal;HPM_P1;HPM_P2
2023/08/22 00:00:39;;;;;;;5.05;4.30;;;;;22.80;100969.00;;;;2102402;28;20277;-53
2023/08/22 00:01:40;;;;;;;6.70;4.50;;;;;22.80;100977.00;;;;2098320;28;20245;-53
2023/08/22 00:02:40;;;;;;;6.60;5.47;;;;;22.80;100972.00;;;;2101935;28;20214;-54
2023/08/22 00:03:40;;;;;;;7.37;3.93;;;;;22.70;100975.00;;;;2093713;27;20263;-54
2023/08/22 00:04:41;;;;;;;8.03;4.67;;;;;22.70;100968.00;;;;2096364;28;20955;-53
2023/08/22 00:05:41;;;;;;;4.40;4.00;;;;;22.80;100970.00;;;;2104079;28;20678;-54
2023/08/22 00:06:42;;;;;;;5.13;4.07;;;;;22.70;100960.00;;;;2094852;28;20885;-53
2023/08/22 00:07:43;;;;;;;4.50;4.10;;;;;22.70;100958.00;;;;2092074;28;20205;-54
2023/08/22 00:08:43;;;;;;;5.10;4.25;;;;;22.60;100960.00;;;;2091284;28;20227;-54
2023/08/22 00:09:44;;;;;;;5.83;4.13;;;;;22.70;100957.00;;;;2104056;28;20211;-54
2023/08/22 00:10:45;;;;;;;5.03;4.63;;;;;22.70;100960.00;;;;2104582;28;20219;-54
2023/08/22 00:11:45;;;;;;;5.65;3.95;;;;;22.70;100953.00;;;;2099319;28;20220;-54
2023/08/22 00:12:45;;;;;;;6.97;4.10;;;;;22.60;100960.00;;;;2105476;28;20210;-54
2023/08/22 00:13:46;;;;;;;4.43;3.80;;;;;22.60;100956.00;;;;2092703;28;20212;-55
2023/08/22 00:14:46;;;;;;;4.83;3.90;;;;;22.60;100954.00;;;;2105158;28;20215;-54
2023/08/22 00:15:46;;;;;;;5.03;3.90;;;;;22.60;100950.00;;;;2099547;28;20222;-52
2023/08/22 00:16:47;;;;;;;6.87;4.30;;;;;22.60;100956.00;;;;2103814;28;20225;-53
2023/08/22 00:17:48;;;;;;;5.70;4.40;;;;;22.60;100946.00;;;;2109944;27;20215;-54
2023/08/22 00:18:48;;;;;;;4.77;4.37;;;;;22.60;100954.00;;;;2089192;28;20211;-54
2023/08/22 00:19:49;;;;;;;5.20;3.93;;;;;22.60;100946.00;;;;2101693;28;20452;-53
2023/08/22 00:20:49;;;;;;;4.90;4.20;;;;;22.60;100954.00;;;;2094047;28;22079;-55
2023/08/22 00:21:50;;;;;;;5.20;4.33;;;;;22.60;100955.00;;;;2101800;27;20223;-53
2023/08/22 00:22:50;;;;;;;5.00;4.30;;;;;22.60;100957.00;;;;2106906;28;20207;-54
2023/08/22 00:23:50;;;;;;;5.00;3.47;;;;;22.60;100950.00;;;;2087730;28;20277;-54
2023/08/22 00:24:51;;;;;;;5.83;3.80;;;;;22.60;100941.00;;;;2102045;28;20242;-53
2023/08/22 00:25:52;;;;;;;4.60;3.80;;;;;22.60;100941.00;;;;2101016;28;20246;-53
2023/08/22 00:26:53;;;;;;;7.80;4.13;;;;;22.50;100945.00;;;;2101295;28;20235;-53
2023/08/22 00:27:54;;;;;;;4.18;3.78;;;;;22.50;100941.00;;;;2100237;28;20303;-53
2023/08/22 00:28:54;;;;;;;5.97;4.60;;;;;22.60;100942.00;;;;2094652;28;20219;-53
2023/08/22 00:29:56;;;;;;;4.73;4.27;;;;;22.50;100941.00;;;;2109011;28;20700;-53
2023/08/22 00:30:57;;;;;;;4.70;4.10;;;;;22.50;100934.00;;;;2105002;28;20227;-53
2023/08/22 00:31:57;;;;;;;7.07;4.70;;;;;22.50;100939.00;;;;2103723;28;20223;-54
2023/08/22 00:32:58;;;;;;;5.57;4.40;;;;;22.50;100941.00;;;;2099665;28;20227;-53
2023/08/22 00:34:01;;;;;;;4.00;3.60;;;;;22.50;100947.00;;;;2092662;28;20223;-54
2023/08/22 00:35:01;;;;;;;8.00;4.25;;;;;22.50;100800.00;;;;2101786;28;20242;-54
2023/08/22 00:36:02;;;;;;;4.70;4.27;;;;;22.50;100938.00;;;;2095162;28;20238;-53
2023/08/22 00:37:02;;;;;;;4.90;3.90;;;;;22.50;100941.00;;;;2105333;28;20227;-53
2023/08/22 00:38:03;;;;;;;8.07;4.33;;;;;22.50;100936.00;;;;2098380;28;20263;-53
2023/08/22 00:39:03;;;;;;;4.47;3.90;;;;;22.50;100782.00;;;;2092783;27;20234;-54
2023/08/22 00:40:05;;;;;;;7.50;3.87;;;;;22.50;100923.00;;;;2100431;28;20842;-53
2023/08/22 00:41:05;;;;;;;4.65;4.07;;;;;22.50;100931.00;;;;2100872;28;20268;-54
2023/08/22 00:42:06;;;;;;;5.67;4.27;;;;;22.50;100932.00;;;;2100252;28;20219;-54
2023/08/22 00:43:06;;;;;;;4.40;3.80;;;;;22.50;100930.00;;;;2104325;28;20215;-54
2023/08/22 00:44:06;;;;;;;5.77;4.07;;;;;22.50;100926.00;;;;2090453;28;20216;-53
2023/08/22 00:45:07;;;;;;;4.57;3.90;;;;;22.50;100923.00;;;;2106700;27;20285;-54
2023/08/22 00:46:08;;;;;;;6.00;3.80;;;;;22.50;100923.00;;;;2098475;28;20308;-54
2023/08/22 00:47:08;;;;;;;5.87;3.83;;;;;22.50;100892.00;;;;2085056;28;20221;-53
2023/08/22 00:48:08;;;;;;;4.03;3.63;;;;;22.50;100923.00;;;;2098640;28;20204;-54
2023/08/22 00:49:09;;;;;;;6.40;4.10;;;;;22.50;100900.00;;;;2088094;28;20220;-54
2023/08/22 00:50:10;;;;;;;5.07;4.03;;;;;22.40;100917.00;;;;2106743;28;20211;-54
2023/08/22 00:51:12;;;;;;;5.03;4.57;;;;;22.40;100920.00;;;;2102452;28;20237;-54
2023/08/22 00:52:12;;;;;;;4.40;3.97;;;;;22.40;100915.00;;;;2098449;28;20222;-54
2023/08/22 00:53:13;;;;;;;4.60;4.20;;;;;22.40;100917.00;;;;2101487;28;20216;-53
2023/08/22 00:54:13;;;;;;;7.63;4.50;;;;;22.40;100920.00;;;;2087116;28;20743;-53
2023/08/22 00:55:13;;;;;;;4.37;3.97;;;;;22.40;100910.00;;;;2102853;28;20289;-54
2023/08/22 00:56:14;;;;;;;4.40;4.00;;;;;22.40;100912.00;;;;2092836;28;20224;-54
2023/08/22 00:57:15;;;;;;;4.55;3.65;;;;;22.40;100911.00;;;;2085748;28;20267;-53
2023/08/22 00:58:15;;;;;;;6.53;4.10;;;;;22.40;100905.00;;;;2112569;27;20210;-53
2023/08/22 00:59:16;;;;;;;4.60;3.70;;;;;22.40;100907.00;;;;2099040;28;20207;-54
2023/08/22 01:00:16;;;;;;;5.33;4.20;;;;;22.40;100910.00;;;;2100170;28;20223;-54
2023/08/22 01:01:17;;;;;;;6.07;3.60;;;;;22.40;100909.00;;;;2096250;28;20218;-54
2023/08/22 01:02:17;;;;;;;4.50;4.07;;;;;22.40;100910.00;;;;2099550;28;20227;-52
2023/08/22 01:03:17;;;;;;;6.70;4.20;;;;;22.40;100916.00;;;;2099286;27;20742;-54
2023/08/22 01:04:19;;;;;;;6.23;4.00;;;;;22.40;100917.00;;;;2108608;27;20279;-54
2023/08/22 01:05:19;;;;;;;4.85;4.35;;;;;22.40;100883.00;;;;2103202;28;20795;-54
2023/08/22 01:06:19;;;;;;;5.47;3.77;;;;;22.40;100916.00;;;;2105030;28;20223;-52
2023/08/22 01:07:30;;;;;;;8.77;4.23;;;;;22.40;100914.00;;;;2098440;28;20238;-53
2023/08/22 01:08:31;;;;;;;4.50;4.10;;;;;22.40;100924.00;;;;2097243;28;20667;-54
2023/08/22 01:09:45;;;;;;;6.05;4.05;;;;;22.30;100987.00;;;;2096139;28;20231;-54
2023/08/22 01:10:47;;;;;;;4.40;3.50;;;;;22.40;100901.00;;;;2095202;28;20243;-54
2023/08/22 01:11:48;;;;;;;4.53;3.60;;;;;22.40;100906.00;;;;2097162;28;20322;-53
2023/08/22 01:13:12;;;;;;;5.70;4.07;;;;;22.30;100899.00;;;;2103201;28;20203;-53
2023/08/22 01:14:15;;;;;;;8.18;4.03;;;;;22.30;100889.00;;;;2086604;28;20215;-54
2023/08/22 01:15:25;;;;;;;3.97;3.38;;;;;22.30;100911.00;;;;2094105;28;20224;-53
2023/08/22 01:16:26;;;;;;;5.47;3.65;;;;;22.30;100916.00;;;;2093282;28;20838;-54
2023/08/22 01:17:26;;;;;;;4.00;3.60;;;;;22.30;100916.00;;;;2100251;28;20269;-53
2023/08/22 01:18:27;;;;;;;4.27;3.87;;;;;22.30;100918.00;;;;2094217;28;20211;-54
2023/08/22 01:19:27;;;;;;;5.80;3.90;;;;;22.30;100911.00;;;;2099057;28;21505;-53
2023/08/22 01:20:27;;;;;;;6.83;3.83;;;;;22.30;100907.00;;;;2083680;28;20225;-53
2023/08/22 01:21:28;;;;;;;6.97;4.20;;;;;22.30;100901.00;;;;2095093;28;20282;-53
2023/08/22 01:22:28;;;;;;;4.43;3.80;;;;;22.40;100909.00;;;;2107802;28;20215;-53
2023/08/22 01:23:28;;;;;;;4.57;3.87;;;;;22.40;100920.00;;;;2092039;28;20218;-53
2023/08/22 01:24:29;;;;;;;4.07;3.53;;;;;22.40;100908.00;;;;2100336;28;20285;-54
2023/08/22 01:25:29;;;;;;;5.87;4.27;;;;;22.40;100909.00;;;;2102786;28;20243;-54
2023/08/22 01:26:30;;;;;;;4.93;4.30;;;;;22.30;100914.00;;;;2098763;28;20767;-53
2023/08/22 01:27:31;;;;;;;4.77;3.73;;;;;22.40;100906.00;;;;2106477;28;20329;-54
2023/08/22 01:28:44;;;;;;;7.22;3.55;;;;;22.30;100915.00;;;;2068914;28;20389;-54
2023/08/22 01:29:48;;;;;;;7.80;4.00;;;;;22.30;100904.00;;;;2088210;28;20214;-54
2023/08/22 01:31:06;;;;;;;4.20;3.80;;;;;22.30;100898.00;;;;2099063;28;20752;-55
2023/08/22 01:32:23;;;;;;;5.10;3.95;;;;;22.30;100900.00;;;;2097043;28;20720;-53
2023/08/22 01:33:33;;;;;;;4.18;3.58;;;;;22.30;100893.00;;;;2089786;28;20241;-52
2023/08/22 01:34:35;;;;;;;4.90;3.90;;;;;22.30;100888.00;;;;2094613;28;20235;-53
2023/08/22 01:35:35;;;;;;;4.40;4.00;;;;;22.30;100904.00;;;;2091138;28;20585;-54
2023/08/22 01:36:36;;;;;;;6.90;3.40;;;;;22.30;100907.00;;;;2093165;28;20311;-54
2023/08/22 01:37:36;;;;;;;4.73;4.23;;;;;22.30;100883.00;;;;2097362;28;20356;-54
2023/08/22 01:38:37;;;;;;;4.67;4.00;;;;;22.30;100899.00;;;;2082421;28;20605;-54
2023/08/22 01:39:38;;;;;;;9.97;3.90;;;;;22.30;100905.00;;;;2078970;28;20269;-55
2023/08/22 01:40:38;;;;;;;6.30;3.80;;;;;22.30;100906.00;;;;2070909;28;20456;-55
2023/08/22 01:41:38;;;;;;;4.03;3.60;;;;;22.30;100901.00;;;;2080783;28;20740;-54
2023/08/22 01:42:39;;;;;;;6.30;3.70;;;;;22.30;100895.00;;;;2090859;28;20307;-54
2023/08/22 01:43:42;;;;;;;5.93;3.63;;;;;22.30;100892.00;;;;2089795;28;20234;-53
2023/08/22 01:44:42;;;;;;;4.88;3.63;;;;;22.30;100892.00;;;;2090162;28;20793;-53
2023/08/22 01:45:42;;;;;;;5.47;3.47;;;;;22.30;100895.00;;;;2106281;28;20214;-53
2023/08/22 01:46:43;;;;;;;4.47;3.93;;;;;22.30;100893.00;;;;2100672;28;20208;-54
2023/08/22 01:47:43;;;;;;;3.57;3.27;;;;;22.20;100890.00;;;;2098496;28;20253;-54
2023/08/22 01:48:44;;;;;;;6.37;3.67;;;;;22.20;100862.00;;;;2092640;28;20226;-53
2023/08/22 01:49:44;;;;;;;3.87;3.43;;;;;22.20;100887.00;;;;2100105;28;20280;-53
2023/08/22 01:50:44;;;;;;;4.90;3.97;;;;;22.20;100892.00;;;;2102374;28;20303;-54
2023/08/22 01:51:45;;;;;;;5.60;3.50;;;;;22.20;100890.00;;;;2100785;28;20208;-55
2023/08/22 01:52:45;;;;;;;6.40;3.47;;;;;22.30;100893.00;;;;2102424;28;20837;-55
2023/08/22 01:53:45;;;;;;;4.60;3.60;;;;;22.30;100893.00;;;;2096029;28;20590;-55
2023/08/22 01:54:48;;;;;;;4.17;3.67;;;;;22.30;100885.00;;;;2097594;28;20231;-54
2023/08/22 01:55:48;;;;;;;6.88;3.58;;;;;22.30;100896.00;;;;2102619;28;20211;-54
2023/08/22 01:56:49;;;;;;;5.27;3.37;;;;;22.30;100886.00;;;;2101972;28;20214;-55
2023/08/22 01:57:50;;;;;;;6.07;3.50;;;;;22.30;100891.00;;;;2101859;28;20215;-55
2023/08/22 01:58:50;;;;;;;4.77;4.00;;;;;22.30;100890.00;;;;2092344;27;20208;-55
2023/08/22 01:59:50;;;;;;;5.37;3.67;;;;;22.30;100894.00;;;;2102543;28;20206;-55
2023/08/22 02:00:51;;;;;;;5.90;4.00;;;;;22.30;100895.00;;;;2095654;28;20299;-55
2023/08/22 02:01:51;;;;;;;5.63;3.27;;;;;22.30;100891.00;;;;2100662;28;20325;-55
2023/08/22 02:02:51;;;;;;;5.03;3.80;;;;;22.20;100899.00;;;;2103308;28;20393;-55
2023/08/22 02:03:52;;;;;;;4.57;3.53;;;;;22.20;100894.00;;;;2095064;27;20227;-54
2023/08/22 02:04:52;;;;;;;4.93;3.60;;;;;22.20;100890.00;;;;2101155;27;20312;-55
2023/08/22 02:05:54;;;;;;;4.93;4.40;;;;;22.20;100886.00;;;;2096387;28;20216;-57
2023/08/22 02:06:54;;;;;;;4.20;3.80;;;;;22.20;100887.00;;;;2103730;28;20207;-55
2023/08/22 02:07:54;;;;;;;4.30;3.90;;;;;22.20;100887.00;;;;2098439;28;20760;-55
2023/08/22 02:08:55;;;;;;;4.40;3.97;;;;;22.20;100892.00;;;;2091805;28;20227;-55
2023/08/22 02:09:55;;;;;;;5.07;3.67;;;;;22.20;100892.00;;;;2097353;28;20208;-55
2023/08/22 02:10:55;;;;;;;5.30;4.20;;;;;22.30;100891.00;;;;2100466;28;20223;-55
2023/08/22 02:11:56;;;;;;;3.43;3.13;;;;;22.30;100892.00;;;;2101268;28;20706;-55
2023/08/22 02:12:56;;;;;;;6.60;3.53;;;;;22.20;100884.00;;;;2107240;28;20838;-55
2023/08/22 02:13:56;;;;;;;4.63;3.53;;;;;22.20;100887.00;;;;2089190;28;20249;-55
2023/08/22 02:14:57;;;;;;;4.60;3.33;;;;;22.20;100897.00;;;;2095765;28;20228;-55
2023/08/22 02:15:57;;;;;;;5.07;4.00;;;;;22.20;100893.00;;;;2100225;28;21502;-55
2023/08/22 02:16:57;;;;;;;5.67;3.50;;;;;22.10;100897.00;;;;2101443;28;20222;-55
2023/08/22 02:17:58;;;;;;;3.80;3.50;;;;;22.20;100894.00;;;;2109345;28;20719;-55
2023/08/22 02:18:58;;;;;;;4.80;4.40;;;;;22.20;100892.00;;;;2089517;28;20681;-55
2023/08/22 02:19:58;;;;;;;5.50;3.23;;;;;22.20;100885.00;;;;2101916;28;20207;-55
2023/08/22 02:20:59;;;;;;;5.37;4.10;;;;;22.20;100883.00;;;;2105259;28;20214;-55
2023/08/22 02:21:59;;;;;;;3.20;2.90;;;;;22.20;100886.00;;;;2102450;28;20234;-55
2023/08/22 02:23:02;;;;;;;4.33;3.30;;;;;22.20;100882.00;;;;2108590;28;20198;-55
2023/08/22 02:24:02;;;;;;;4.13;3.15;;;;;22.20;100888.00;;;;2090040;27;20310;-55
2023/08/22 02:25:04;;;;;;;4.00;3.60;;;;;22.20;100888.00;;;;2104136;28;20218;-55
2023/08/22 02:26:05;;;;;;;4.22;3.83;;;;;22.20;100893.00;;;;2099480;28;20223;-55
2023/08/22 02:27:05;;;;;;;6.80;3.87;;;;;22.20;100884.00;;;;2104897;27;20727;-55
2023/08/22 02:28:06;;;;;;;7.13;3.77;;;;;22.20;100886.00;;;;2102228;28;20707;-55
2023/08/22 02:29:06;;;;;;;4.17;3.50;;;;;22.20;100886.00;;;;2083968;28;20233;-55
2023/08/22 02:30:07;;;;;;;5.00;3.63;;;;;22.20;100884.00;;;;2103699;28;20711;-55
2023/08/22 02:31:07;;;;;;;4.17;3.40;;;;;22.20;100884.00;;;;2101022;28;20730;-55
2023/08/22 02:32:07;;;;;;;4.00;3.57;;;;;22.20;100887.00;;;;2102471;28;20554;-55
2023/08/22 02:33:08;;;;;;;4.20;3.50;;;;;22.10;100885.00;;;;2099268;28;20303;-55
2023/08/22 02:34:08;;;;;;;5.80;3.67;;;;;22.10;100880.00;;;;2093964;28;20290;-55
2023/08/22 02:35:08;;;;;;;3.70;3.40;;;;;22.10;100883.00;;;;2097118;28;20215;-55
2023/08/22 02:36:09;;;;;;;3.93;3.23;;;;;22.10;100883.00;;;;2099838;28;20212;-55
2023/08/22 02:37:09;;;;;;;4.50;3.67;;;;;22.10;100885.00;;;;2105464;27;20223;-55
2023/08/22 02:38:09;;;;;;;5.00;3.63;;;;;22.10;100885.00;;;;2098247;28;20224;-55
2023/08/22 02:39:10;;;;;;;3.83;3.53;;;;;22.10;100881.00;;;;2094131;28;20218;-55
2023/08/22 02:40:10;;;;;;;4.27;3.77;;;;;22.10;100879.00;;;;2097010;28;20227;-55
2023/08/22 02:41:11;;;;;;;4.97;3.43;;;;;22.10;100879.00;;;;2097210;28;20219;-55
2023/08/22 02:42:11;;;;;;;3.50;3.17;;;;;22.10;100877.00;;;;2100688;28;20243;-55
2023/08/22 02:43:11;;;;;;;4.70;3.87;;;;;22.10;100873.00;;;;2096954;28;20230;-55
2023/08/22 02:44:12;;;;;;;6.50;4.13;;;;;22.10;100875.00;;;;2093175;28;20219;-55
2023/08/22 02:45:12;;;;;;;3.73;3.40;;;;;22.10;100874.00;;;;2094114;28;20216;-55
2023/08/22 02:46:12;;;;;;;5.43;3.90;;;;;22.10;100876.00;;;;2103634;28;20230;-55
2023/08/22 02:47:13;;;;;;;3.60;3.30;;;;;22.10;100876.00;;;;2099130;28;20747;-58
2023/08/22 02:48:13;;;;;;;3.80;3.33;;;;;22.10;100878.00;;;;2105694;28;20218;-57
2023/08/22 02:49:13;;;;;;;3.63;3.33;;;;;22.10;100878.00;;;;2101658;27;20226;-56
2023/08/22 02:50:14;;;;;;;4.17;3.70;;;;;22.10;100878.00;;;;2110304;27;20330;-56
2023/08/22 02:51:14;;;;;;;4.50;3.40;;;;;22.10;100877.00;;;;2105313;28;20222;-55
2023/08/22 02:52:15;;;;;;;3.47;3.17;;;;;22.10;100877.00;;;;2103577;28;20269;-55
2023/08/22 02:53:15;;;;;;;4.70;3.50;;;;;22.10;100875.00;;;;2105002;28;20229;-55
2023/08/22 02:54:15;;;;;;;3.87;3.57;;;;;22.10;100873.00;;;;2091933;28;20611;-55
2023/08/22 02:55:16;;;;;;;6.30;3.60;;;;;22.00;100869.00;;;;2102443;28;20287;-56
2023/08/22 02:56:16;;;;;;;3.40;3.20;;;;;22.10;100874.00;;;;2105512;28;20219;-55
2023/08/22 02:57:16;;;;;;;4.93;4.03;;;;;22.10;100871.00;;;;2100557;28;20226;-55
2023/08/22 02:58:17;;;;;;;3.40;3.20;;;;;22.10;100872.00;;;;2104973;28;20219;-55
2023/08/22 02:59:20;;;;;;;5.30;3.60;;;;;22.10;100875.00;;;;2091552;28;20253;-54
2023/08/22 03:00:20;;;;;;;5.70;3.50;;;;;22.10;100872.00;;;;2103371;28;20293;-55
2023/08/22 03:01:20;;;;;;;4.30;3.50;;;;;22.10;100880.00;;;;2104963;28;20588;-55
2023/08/22 03:02:21;;;;;;;3.27;2.97;;;;;22.10;100876.00;;;;2098784;28;20925;-55
2023/08/22 03:03:21;;;;;;;3.47;3.17;;;;;22.10;100873.00;;;;2090706;28;20221;-55
2023/08/22 03:04:21;;;;;;;7.43;3.80;;;;;22.10;100880.00;;;;2097987;28;20267;-55
2023/08/22 03:05:22;;;;;;;3.80;3.40;;;;;22.10;100888.00;;;;2098913;28;20223;-57
2023/08/22 03:06:22;;;;;;;3.97;3.57;;;;;22.10;100887.00;;;;2100772;28;20219;-55
2023/08/22 03:07:22;;;;;;;3.57;3.27;;;;;22.10;100880.00;;;;2106309;28;20211;-55
2023/08/22 03:08:23;;;;;;;4.90;3.47;;;;;22.10;100900.00;;;;2096413;28;20804;-55
2023/08/22 03:09:23;;;;;;;4.00;3.40;;;;;22.10;100892.00;;;;2101470;28;20914;-55
2023/08/22 03:10:23;;;;;;;6.27;3.17;;;;;22.10;100897.00;;;;2103651;28;20764;-54
2023/08/22 03:11:24;;;;;;;3.77;3.47;;;;;22.10;100881.00;;;;2099939;28;21005;-55
2023/08/22 03:12:24;;;;;;;5.80;3.50;;;;;22.10;100881.00;;;;2106808;28;20763;-55
2023/08/22 03:13:24;;;;;;;6.67;3.57;;;;;22.00;100880.00;;;;2093257;28;21218;-55
2023/08/22 03:14:25;;;;;;;5.17;2.97;;;;;22.00;100877.00;;;;2104429;28;20207;-56
2023/08/22 03:15:25;;;;;;;4.00;3.60;;;;;22.00;100874.00;;;;2102959;28;20211;-55
2023/08/22 03:16:26;;;;;;;3.77;3.47;;;;;22.00;100884.00;;;;2103627;28;20296;-55
2023/08/22 03:17:26;;;;;;;4.00;3.60;;;;;22.00;100884.00;;;;2106554;28;20213;-55
2023/08/22 03:18:26;;;;;;;4.90;3.20;;;;;22.00;100890.00;;;;2089402;28;20200;-55
2023/08/22 03:19:26;;;;;;;3.57;3.20;;;;;22.00;100892.00;;;;2104777;28;20293;-55
2023/08/22 03:20:27;;;;;;;5.70;3.30;;;;;22.00;100895.00;;;;2103164;28;20222;-55
2023/08/22 03:21:27;;;;;;;5.37;3.60;;;;;21.90;100887.00;;;;2102377;28;20211;-55
2023/08/22 03:22:28;;;;;;;4.87;3.57;;;;;21.90;100885.00;;;;2098880;28;20222;-55
2023/08/22 03:23:28;;;;;;;3.10;2.90;;;;;21.90;100888.00;;;;2088845;28;20332;-55
2023/08/22 03:24:29;;;;;;;3.80;3.17;;;;;22.00;100887.00;;;;2106350;28;20210;-55
2023/08/22 03:25:29;;;;;;;3.77;3.43;;;;;22.00;100886.00;;;;2096253;28;20200;-55
2023/08/22 03:26:30;;;;;;;4.17;3.77;;;;;22.00;100887.00;;;;2096338;28;20468;-55
2023/08/22 03:27:30;;;;;;;4.20;3.30;;;;;22.00;100907.00;;;;2099046;28;20215;-55
2023/08/22 03:28:33;;;;;;;3.60;2.93;;;;;21.90;100887.00;;;;2095822;28;20951;-55
2023/08/22 03:29:33;;;;;;;4.22;3.60;;;;;22.00;100904.00;;;;2107459;28;20237;-55
2023/08/22 03:30:33;;;;;;;5.97;4.00;;;;;21.90;100880.00;;;;2092711;28;20704;-55
2023/08/22 03:31:34;;;;;;;5.53;3.47;;;;;21.90;100878.00;;;;2095285;28;20220;-55
2023/08/22 03:32:34;;;;;;;4.93;3.67;;;;;21.90;100876.00;;;;2097687;28;20215;-55
2023/08/22 03:33:34;;;;;;;3.57;3.27;;;;;21.90;100873.00;;;;2090381;28;20314;-55
2023/08/22 03:34:35;;;;;;;3.43;3.13;;;;;21.90;100876.00;;;;2101591;28;20266;-56
2023/08/22 03:35:35;;;;;;;4.43;3.50;;;;;21.90;100879.00;;;;2099932;28;20211;-55
2023/08/22 03:36:35;;;;;;;3.30;3.00;;;;;21.90;100877.00;;;;2100985;28;20211;-55
2023/08/22 03:37:36;;;;;;;3.40;3.10;;;;;21.90;100877.00;;;;2100525;28;20223;-55
2023/08/22 03:38:36;;;;;;;5.07;3.00;;;;;21.90;100881.00;;;;2092670;28;20689;-55
2023/08/22 03:39:36;;;;;;;4.80;3.30;;;;;21.90;100883.00;;;;2096855;28;20637;-55
2023/08/22 03:40:37;;;;;;;6.83;3.80;;;;;21.90;100869.00;;;;2101571;28;20226;-55
2023/08/22 03:41:37;;;;;;;3.87;3.20;;;;;21.90;100881.00;;;;2104121;28;20242;-55
2023/08/22 03:42:37;;;;;;;4.73;3.47;;;;;21.80;100879.00;;;;2102711;28;20219;-55
2023/08/22 03:43:38;;;;;;;4.73;3.10;;;;;21.90;100916.00;;;;2099032;28;20295;-55
2023/08/22 03:44:38;;;;;;;4.57;3.80;;;;;21.90;100873.00;;;;2100500;28;20692;-55
2023/08/22 03:45:38;;;;;;;7.93;3.40;;;;;21.90;100878.00;;;;2099829;28;20723;-55
2023/08/22 03:46:39;;;;;;;3.73;3.33;;;;;21.90;100872.00;;;;2097976;28;20237;-55
2023/08/22 03:47:39;;;;;;;6.83;3.17;;;;;21.90;100874.00;;;;2102703;28;20247;-55
2023/08/22 03:48:39;;;;;;;5.70;3.57;;;;;21.90;100882.00;;;;2095740;28;20277;-55
2023/08/22 03:49:40;;;;;;;5.07;3.43;;;;;21.90;100877.00;;;;2109824;28;20214;-55
2023/08/22 03:50:41;;;;;;;3.37;3.07;;;;;21.90;100872.00;;;;2101930;28;20247;-55
2023/08/22 03:51:41;;;;;;;4.57;3.38;;;;;21.90;100879.00;;;;2102266;28;20211;-55
2023/08/22 03:52:41;;;;;;;3.87;3.47;;;;;21.90;100872.00;;;;2104284;27;20216;-55
2023/08/22 03:53:42;;;;;;;5.57;3.03;;;;;21.90;100867.00;;;;2088425;28;20227;-55
2023/08/22 03:54:42;;;;;;;5.10;4.00;;;;;21.80;100868.00;;;;2096199;28;20223;-55
2023/08/22 03:55:43;;;;;;;5.90;3.40;;;;;21.80;100869.00;;;;2101600;28;20306;-55
2023/08/22 03:56:43;;;;;;;5.20;3.40;;;;;21.80;100870.00;;;;2102104;28;20229;-55
2023/08/22 03:57:44;;;;;;;6.53;3.47;;;;;21.80;100865.00;;;;2098234;28;20306;-55
2023/08/22 03:58:44;;;;;;;4.80;3.60;;;;;21.90;100874.00;;;;2086923;28;20231;-55
2023/08/22 03:59:44;;;;;;;5.73;3.40;;;;;21.90;100865.00;;;;2110595;28;20222;-55
2023/08/22 04:00:45;;;;;;;4.40;3.70;;;;;21.80;100867.00;;;;2101109;27;20299;-55
2023/08/22 04:01:45;;;;;;;5.63;3.50;;;;;21.80;100866.00;;;;2102545;28;20222;-55
2023/08/22 04:02:46;;;;;;;5.40;3.70;;;;;21.80;100866.00;;;;2110397;28;20215;-55
2023/08/22 04:03:46;;;;;;;5.23;3.40;;;;;21.80;100883.00;;;;2096662;28;20227;-55
2023/08/22 04:04:46;;;;;;;4.07;3.77;;;;;21.80;100916.00;;;;2096006;28;20722;-55
2023/08/22 04:05:47;;;;;;;4.70;3.50;;;;;21.80;100867.00;;;;2100669;28;20754;-55
2023/08/22 04:06:47;;;;;;;4.70;3.27;;;;;21.80;100861.00;;;;2103686;28;20700;-55
2023/08/22 04:07:48;;;;;;;6.73;3.43;;;;;21.80;100864.00;;;;2110884;27;20677;-55
2023/08/22 04:08:48;;;;;;;3.50;3.00;;;;;21.80;100864.00;;;;2089357;28;20265;-56
2023/08/22 04:09:48;;;;;;;5.33;3.43;;;;;21.80;100867.00;;;;2102134;28;20441;-55
2023/08/22 04:10:49;;;;;;;4.13;3.67;;;;;21.80;100868.00;;;;2110819;28;20222;-55
2023/08/22 04:11:49;;;;;;;4.33;3.93;;;;;21.80;100859.00;;;;2100204;28;20215;-55
2023/08/22 04:12:49;;;;;;;6.20;3.93;;;;;21.80;100861.00;;;;2109497;28;20214;-55
2023/08/22 04:13:50;;;;;;;6.27;4.30;;;;;21.80;100863.00;;;;2089942;28;20688;-54
2023/08/22 04:14:50;;;;;;;5.83;4.40;;;;;21.80;100863.00;;;;2107417;28;20207;-55
2023/08/22 04:15:51;;;;;;;4.53;4.13;;;;;21.80;100864.00;;;;2105511;28;20808;-58
2023/08/22 04:16:51;;;;;;;6.83;4.07;;;;;21.80;100856.00;;;;2102063;28;20602;-56
2023/08/22 04:17:51;;;;;;;7.10;4.30;;;;;21.80;100865.00;;;;2102065;28;20280;-55
2023/08/22 04:18:52;;;;;;;4.23;3.80;;;;;21.70;100856.00;;;;2091078;28;20252;-55
2023/08/22 04:19:52;;;;;;;10.90;3.63;;;;;21.80;100865.00;;;;2106511;27;20235;-56
2023/08/22 04:20:52;;;;;;;4.77;4.00;;;;;21.80;100858.00;;;;2103271;28;20211;-56
2023/08/22 04:21:53;;;;;;;5.30;3.90;;;;;21.80;100859.00;;;;2104426;28;20582;-55
2023/08/22 04:22:53;;;;;;;4.73;3.80;;;;;21.80;100861.00;;;;2108278;28;20582;-55
2023/08/22 04:23:53;;;;;;;4.13;3.70;;;;;21.70;100869.00;;;;2085184;28;20216;-55
2023/08/22 04:24:53;;;;;;;4.17;3.57;;;;;21.80;100860.00;;;;2105203;28;20287;-54
2023/08/22 04:25:54;;;;;;;4.47;3.50;;;;;21.80;100859.00;;;;2101827;28;20212;-55
2023/08/22 04:26:54;;;;;;;4.30;3.73;;;;;21.80;100861.00;;;;2100777;28;20215;-55
2023/08/22 04:27:54;;;;;;;5.53;3.77;;;;;21.70;100864.00;;;;2102100;28;20235;-55
2023/08/22 04:28:55;;;;;;;7.37;3.87;;;;;21.70;100863.00;;;;2100705;27;20209;-55
2023/08/22 04:29:55;;;;;;;3.70;3.40;;;;;21.80;100857.00;;;;2102428;28;20207;-55
2023/08/22 04:31:02;;;;;;;5.40;3.50;;;;;21.70;100853.00;;;;2093423;28;20243;-54
2023/08/22 04:32:03;;;;;;;4.30;3.60;;;;;21.70;100856.00;;;;2108405;27;20247;-55
2023/08/22 04:33:04;;;;;;;4.60;4.20;;;;;21.70;100855.00;;;;2098872;28;20244;-55
2023/08/22 04:34:04;;;;;;;5.20;3.70;;;;;21.70;100864.00;;;;2097574;28;20219;-55
2023/08/22 04:35:05;;;;;;;3.60;3.30;;;;;21.80;100867.00;;;;2098209;28;20291;-55
2023/08/22 04:36:06;;;;;;;4.87;3.43;;;;;21.80;100861.00;;;;2103462;28;20212;-55
2023/08/22 04:37:07;;;;;;;5.53;3.60;;;;;21.70;100866.00;;;;2106254;28;20206;-55
2023/08/22 04:38:07;;;;;;;4.43;3.30;;;;;21.70;100870.00;;;;2101780;28;20458;-54
2023/08/22 04:39:08;;;;;;;4.30;3.50;;;;;21.70;100869.00;;;;2092034;28;20453;-54
2023/08/22 04:40:09;;;;;;;4.47;3.47;;;;;21.70;100865.00;;;;2098694;28;20820;-55
2023/08/22 04:41:09;;;;;;;8.23;3.83;;;;;21.70;100869.00;;;;2104628;27;20208;-55
2023/08/22 04:42:10;;;;;;;3.37;3.03;;;;;21.70;100867.00;;;;2101385;28;20265;-55
2023/08/22 04:43:10;;;;;;;3.40;3.03;;;;;21.70;100866.00;;;;2103596;28;20224;-55
2023/08/22 04:44:10;;;;;;;3.70;3.33;;;;;21.70;100868.00;;;;2095216;28;20294;-55
2023/08/22 04:45:11;;;;;;;3.90;3.53;;;;;21.60;100871.00;;;;2106543;27;20269;-54
2023/08/22 04:46:12;;;;;;;4.23;3.33;;;;;21.70;100868.00;;;;2103381;27;20211;-54
2023/08/22 04:47:12;;;;;;;5.67;3.57;;;;;21.60;100866.00;;;;2093546;28;20246;-55
2023/08/22 04:48:12;;;;;;;5.80;3.17;;;;;21.60;100872.00;;;;2103266;28;20453;-55
2023/08/22 04:49:13;;;;;;;4.80;3.97;;;;;21.70;100870.00;;;;2095134;27;20214;-54
2023/08/22 04:50:13;;;;;;;5.90;3.73;;;;;21.70;100861.00;;;;2101814;28;20924;-54
2023/08/22 04:51:14;;;;;;;5.50;3.30;;;;;21.70;100865.00;;;;2103173;28;20783;-55
2023/08/22 04:52:14;;;;;;;7.00;3.00;;;;;21.70;100872.00;;;;2099594;28;20223;-54
2023/08/22 04:53:15;;;;;;;3.80;2.80;;;;;21.70;100869.00;;;;2103152;28;20223;-54
2023/08/22 04:54:15;;;;;;;4.33;3.00;;;;;21.70;100864.00;;;;2091382;28;20207;-54
2023/08/22 04:55:15;;;;;;;7.33;2.80;;;;;21.70;100866.00;;;;2102775;28;20215;-54
2023/08/22 04:56:16;;;;;;;5.43;3.20;;;;;21.70;100863.00;;;;2104537;28;20222;-55
2023/08/22 04:57:16;;;;;;;5.90;3.00;;;;;21.70;100864.00;;;;2113149;27;20379;-54
2023/08/22 04:58:16;;;;;;;5.83;3.60;;;;;21.70;100870.00;;;;2108746;28;20264;-54
2023/08/22 04:59:17;;;;;;;4.53;3.07;;;;;21.70;100871.00;;;;2092360;28;20273;-54
2023/08/22 05:00:17;;;;;;;5.10;3.40;;;;;21.70;100862.00;;;;2108068;28;20215;-55
2023/08/22 05:01:18;;;;;;;5.87;2.90;;;;;21.70;100872.00;;;;2099069;28;20211;-53